Sidnaw, Michigan
Current Conditions -  °F | °C
As of 3:55 AM on Monday 20 Oct 2014 (Local Time) from KLNL Reporting Station
Overcast Overcast  
Wind Chill: 42°   Ceiling: 3800
Heat Index: 42°   Visibility: 10mi
Dew Point: 42°   Wind: 3mph
Humidity: 100%   Direction: 310°NW
Pressure: 29.77"   Gusts: NA
Location:  46.5°N, 88.71°W
Report Text: KLNL 200755Z AUTO 31003KT 10SM SCT023 OVC038 05/05 A2977 RMK AO2 T00530053
Loading
Personal Weather Stations






























Interactive Weather Map
Tropical Storm Tracking
New forecast layout! Learn more

10-Day Weather Forecast

Advertisements
Track Severe Weather on mobile